Time;durP1;ratioP1;P1;durP2;ratioP2;P2;SDS_P1;SDS_P2;PMS_P1;PMS_P2;Temp;Humidity;BMP_temperature;BMP_pressure;BME280_temperature;BME280_humidity;BME280_pressure;Samples;Min_cycle;Max_cycle;Signal;HPM_P1;HPM_P2
2023/05/26 00:00:06;;;;;;;4.70;1.52;;;13.10;65.80;;;;;;5028956;28;20025;-69
2023/05/26 00:02:36;;;;;;;4.18;1.40;;;13.10;65.80;;;;;;5032670;28;20570;-67
2023/05/26 00:05:06;;;;;;;8.48;1.63;;;13.00;65.80;;;;;;5031535;28;20029;-64
2023/05/26 00:07:32;;;;;;;2.75;1.88;;;13.00;65.90;;;;;;5032246;28;20427;-65
2023/05/26 00:09:58;;;;;;;2.00;0.50;;;12.90;66.00;;;;;;5031283;28;20029;-64
2023/05/26 00:12:24;;;;;;;1.63;0.73;;;12.90;66.10;;;;;;5032895;28;20026;-65
2023/05/26 00:14:50;;;;;;;8.05;1.58;;;12.80;66.30;;;;;;5033100;28;20099;-65
2023/05/26 00:17:16;;;;;;;3.45;1.85;;;12.80;66.30;;;;;;5026152;28;20092;-63
2023/05/26 00:19:43;;;;;;;2.05;1.35;;;12.80;66.50;;;;;;5029528;28;20025;-67
2023/05/26 00:22:10;;;;;;;3.20;1.02;;;12.70;66.70;;;;;;5026860;28;20076;-68
2023/05/26 00:24:36;;;;;;;3.92;0.85;;;12.60;66.70;;;;;;5033123;28;20091;-68
2023/05/26 00:27:02;;;;;;;6.80;1.70;;;12.60;66.80;;;;;;5028827;28;20041;-69
2023/05/26 00:29:27;;;;;;;6.07;1.40;;;12.60;66.80;;;;;;5031160;28;20026;-70
2023/05/26 00:31:53;;;;;;;4.35;1.80;;;12.60;66.80;;;;;;5029482;28;20038;-69
2023/05/26 00:34:19;;;;;;;2.47;1.42;;;12.60;66.90;;;;;;5025934;28;20068;-68
2023/05/26 00:36:46;;;;;;;5.00;1.58;;;12.50;66.90;;;;;;5032490;28;20051;-68
2023/05/26 00:39:12;;;;;;;3.20;1.27;;;12.50;67.00;;;;;;5032375;28;20064;-69
2023/05/26 00:41:37;;;;;;;5.35;1.85;;;12.50;67.20;;;;;;5029937;28;20026;-65
2023/05/26 00:44:03;;;;;;;3.63;1.52;;;12.50;67.20;;;;;;5027762;28;20025;-64
2023/05/26 00:46:30;;;;;;;4.65;1.27;;;12.50;67.30;;;;;;5027910;28;20060;-65
2023/05/26 00:48:56;;;;;;;3.85;1.10;;;12.50;67.30;;;;;;5038565;28;20048;-64
2023/05/26 00:51:22;;;;;;;3.90;1.73;;;12.40;67.20;;;;;;5034616;28;20034;-67
2023/05/26 00:53:49;;;;;;;3.08;1.00;;;12.40;67.40;;;;;;5033270;28;20033;-68
2023/05/26 00:56:18;;;;;;;4.40;1.30;;;12.40;67.50;;;;;;5038469;28;20524;-68
2023/05/26 00:58:45;;;;;;;3.08;1.52;;;12.40;67.40;;;;;;5030501;28;20036;-64
2023/05/26 01:01:15;;;;;;;2.30;1.67;;;12.40;67.40;;;;;;5029441;28;20091;-68
2023/05/26 01:03:41;;;;;;;4.50;1.50;;;12.40;67.50;;;;;;5027611;28;20429;-68
2023/05/26 01:06:06;;;;;;;2.30;1.25;;;12.30;67.50;;;;;;5028886;28;20030;-64
2023/05/26 01:08:32;;;;;;;3.22;1.00;;;12.30;67.50;;;;;;5024652;28;20060;-64
2023/05/26 01:11:08;;;;;;;4.82;1.40;;;12.30;67.60;;;;;;5031744;28;20033;-63
2023/05/26 01:13:48;;;;;;;1.17;0.95;;;12.30;67.70;;;;;;5027435;28;20029;-67
2023/05/26 01:16:16;;;;;;;5.45;1.90;;;12.30;67.80;;;;;;5029181;28;20052;-63
2023/05/26 01:18:52;;;;;;;4.20;1.67;;;12.20;67.90;;;;;;5030101;28;20053;-64
2023/05/26 01:21:21;;;;;;;4.22;2.00;;;12.20;68.00;;;;;;5027202;28;20077;-67
2023/05/26 01:24:00;;;;;;;3.70;1.67;;;12.10;68.00;;;;;;5027221;28;20444;-67
2023/05/26 01:26:28;;;;;;;3.33;1.45;;;12.10;68.00;;;;;;5030351;28;20021;-67
2023/05/26 01:29:08;;;;;;;4.57;1.60;;;12.10;68.30;;;;;;5030193;28;20025;-63
2023/05/26 01:31:34;;;;;;;2.65;1.55;;;12.10;68.20;;;;;;5019075;28;20126;-66
2023/05/26 01:34:01;;;;;;;4.45;2.00;;;12.10;68.40;;;;;;5029999;28;20022;-67
2023/05/26 01:36:29;;;;;;;4.82;2.10;;;12.00;68.50;;;;;;5031528;28;20032;-66
2023/05/26 01:38:55;;;;;;;1.77;1.13;;;12.00;68.40;;;;;;5022641;28;20423;-66
2023/05/26 01:41:32;;;;;;;5.22;1.95;;;12.00;68.50;;;;;;5029430;28;20017;-67
2023/05/26 01:44:18;;;;;;;9.65;2.17;;;12.00;68.50;;;;;;5024690;28;20479;-67
2023/05/26 01:46:52;;;;;;;7.47;1.60;;;11.90;68.70;;;;;;5022544;28;20549;-67
2023/05/26 01:49:27;;;;;;;3.60;1.25;;;11.90;68.70;;;;;;5042260;28;20436;-66
2023/05/26 01:51:59;;;;;;;9.85;1.67;;;11.90;68.80;;;;;;5031696;28;20022;-63
2023/05/26 01:54:27;;;;;;;5.63;1.30;;;11.90;68.80;;;;;;5031623;28;20029;-67
2023/05/26 01:56:54;;;;;;;2.20;1.42;;;11.90;68.90;;;;;;5030055;28;20076;-66
2023/05/26 01:59:24;;;;;;;4.53;1.30;;;11.90;68.90;;;;;;5021203;28;20029;-67
2023/05/26 02:01:50;;;;;;;7.05;1.73;;;11.90;68.90;;;;;;5030514;28;20087;-67
2023/05/26 02:04:15;;;;;;;1.92;1.52;;;11.90;69.00;;;;;;5029525;28;20025;-67
2023/05/26 02:06:41;;;;;;;7.78;2.05;;;11.90;69.30;;;;;;5029241;28;20033;-67
2023/05/26 02:09:07;;;;;;;3.60;1.55;;;11.80;69.20;;;;;;5029440;28;20079;-63
2023/05/26 02:11:33;;;;;;;10.75;1.77;;;11.80;69.30;;;;;;5027014;28;20026;-63
2023/05/26 02:13:59;;;;;;;4.05;1.65;;;11.80;69.40;;;;;;5029053;28;20021;-67
2023/05/26 02:16:27;;;;;;;1.63;1.33;;;11.80;69.30;;;;;;5027008;28;20057;-67
2023/05/26 02:18:54;;;;;;;8.90;2.30;;;11.80;69.30;;;;;;5036528;28;20028;-67
2023/05/26 02:21:20;;;;;;;3.33;1.27;;;11.70;69.40;;;;;;5026609;28;20409;-63
2023/05/26 02:23:46;;;;;;;5.35;1.98;;;11.70;69.50;;;;;;5046999;28;20024;-63
2023/05/26 02:26:12;;;;;;;2.90;1.38;;;11.70;69.40;;;;;;5030139;28;20029;-63
2023/05/26 02:28:38;;;;;;;3.80;1.88;;;11.60;69.60;;;;;;5034980;28;20096;-63
2023/05/26 02:31:05;;;;;;;2.90;1.50;;;11.60;69.60;;;;;;5029736;28;20117;-64
2023/05/26 02:33:31;;;;;;;9.95;2.08;;;11.60;69.70;;;;;;5029526;28;20041;-67
2023/05/26 02:35:57;;;;;;;5.25;1.20;;;11.60;69.80;;;;;;5027629;28;20045;-66
2023/05/26 02:38:22;;;;;;;3.97;1.40;;;11.60;69.80;;;;;;5032183;28;20136;-67
2023/05/26 02:40:49;;;;;;;6.72;1.48;;;11.60;70.40;;;;;;5019614;28;20056;-67
2023/05/26 02:43:16;;;;;;;4.78;2.20;;;11.60;69.80;;;;;;5037925;28;20029;-67
2023/05/26 02:45:42;;;;;;;6.38;1.58;;;11.50;69.80;;;;;;5023090;28;20030;-67
2023/05/26 02:48:08;;;;;;;5.00;1.35;;;11.50;70.00;;;;;;5016612;28;20048;-67
2023/05/26 02:50:33;;;;;;;10.63;2.13;;;11.50;70.00;;;;;;5029659;28;20017;-63
2023/05/26 02:52:59;;;;;;;3.97;1.70;;;11.50;70.20;;;;;;5034995;28;20037;-63
2023/05/26 02:55:24;;;;;;;9.25;1.67;;;11.50;70.20;;;;;;5030619;28;20026;-63
2023/05/26 02:57:51;;;;;;;3.33;1.40;;;11.50;70.20;;;;;;5035985;28;20037;-63
2023/05/26 03:00:18;;;;;;;12.63;3.45;;;11.40;70.20;;;;;;5039419;28;20096;-65
2023/05/26 03:02:44;;;;;;;4.10;1.52;;;11.40;70.30;;;;;;5047074;28;20086;-64
2023/05/26 03:05:10;;;;;;;1.13;1.00;;;11.40;70.30;;;;;;5038758;28;20060;-64
2023/05/26 03:07:36;;;;;;;3.25;1.30;;;11.40;70.40;;;;;;5042555;28;20035;-64
2023/05/26 03:10:02;;;;;;;6.47;2.17;;;11.30;70.50;;;;;;5033831;28;20034;-68
2023/05/26 03:12:27;;;;;;;2.97;1.25;;;11.30;70.70;;;;;;5042536;28;20029;-64
2023/05/26 03:14:54;;;;;;;8.45;0.95;;;11.30;70.70;;;;;;5040289;28;20029;-64
2023/05/26 03:17:20;;;;;;;4.00;0.95;;;11.30;70.60;;;;;;5032357;28;20164;-64
2023/05/26 03:19:45;;;;;;;4.63;1.38;;;11.30;70.70;;;;;;5026066;28;20105;-64
2023/05/26 03:22:11;;;;;;;5.43;1.60;;;11.30;70.70;;;;;;5033573;28;20246;-64
2023/05/26 03:24:37;;;;;;;4.05;1.30;;;11.20;70.70;;;;;;5031151;28;20040;-68
2023/05/26 03:27:03;;;;;;;6.70;2.05;;;11.20;70.80;;;;;;5033697;28;20030;-65
2023/05/26 03:29:30;;;;;;;3.47;1.35;;;11.20;71.00;;;;;;5028390;28;20037;-63
2023/05/26 03:31:56;;;;;;;5.03;2.00;;;11.20;71.10;;;;;;5025837;28;20026;-64
2023/05/26 03:34:24;;;;;;;2.78;1.25;;;11.10;71.00;;;;;;5029077;28;20033;-67
2023/05/26 03:36:49;;;;;;;2.58;1.50;;;11.10;71.10;;;;;;5032442;28;20527;-63
2023/05/26 03:39:18;;;;;;;5.82;2.05;;;11.10;71.10;;;;;;5034787;28;20033;-63
2023/05/26 03:41:48;;;;;;;9.38;2.20;;;11.10;71.30;;;;;;5027783;28;20366;-63
2023/05/26 03:44:18;;;;;;;4.22;2.35;;;11.10;71.30;;;;;;5027333;28;20025;-67
2023/05/26 03:46:47;;;;;;;3.15;1.70;;;11.10;71.30;;;;;;5031417;28;20507;-67
2023/05/26 03:49:13;;;;;;;7.93;2.03;;;11.10;71.30;;;;;;5007359;28;20521;-63
2023/05/26 03:51:39;;;;;;;3.22;1.48;;;11.10;71.40;;;;;;5023045;28;20041;-67
2023/05/26 03:54:05;;;;;;;2.00;0.90;;;11.10;71.50;;;;;;5036693;28;20361;-67
2023/05/26 03:56:34;;;;;;;5.45;1.60;;;11.10;71.40;;;;;;5013795;28;20125;-67
2023/05/26 03:59:00;;;;;;;2.53;1.58;;;11.10;71.40;;;;;;5021653;28;20109;-63
2023/05/26 04:01:25;;;;;;;5.47;1.90;;;11.10;71.40;;;;;;5029751;28;20105;-63
2023/05/26 04:03:52;;;;;;;2.20;1.38;;;11.10;71.50;;;;;;5016399;28;20052;-63
2023/05/26 04:06:17;;;;;;;2.35;0.75;;;11.10;71.50;;;;;;5023073;28;20030;-63
2023/05/26 04:08:43;;;;;;;4.40;2.08;;;11.10;71.40;;;;;;5032767;28;20090;-63
2023/05/26 04:11:09;;;;;;;9.00;1.40;;;11.10;71.40;;;;;;5032922;28;20475;-63
2023/05/26 04:13:38;;;;;;;7.90;1.80;;;11.10;71.40;;;;;;5031056;28;20033;-63
2023/05/26 04:16:04;;;;;;;4.82;2.08;;;11.10;71.50;;;;;;5026062;28;20092;-63
2023/05/26 04:18:30;;;;;;;4.45;1.48;;;11.10;71.50;;;;;;5030288;28;20042;-67
2023/05/26 04:20:56;;;;;;;3.50;1.80;;;11.10;71.50;;;;;;5030689;28;20050;-63
2023/05/26 04:23:22;;;;;;;6.15;1.85;;;11.10;71.50;;;;;;5014417;28;20044;-63
2023/05/26 04:25:48;;;;;;;3.97;2.08;;;11.10;71.50;;;;;;5012443;28;20029;-67
2023/05/26 04:28:14;;;;;;;7.10;2.65;;;11.10;71.60;;;;;;5034831;28;20061;-67
2023/05/26 04:30:40;;;;;;;4.82;1.65;;;11.10;71.60;;;;;;5035235;28;20464;-67
2023/05/26 04:33:07;;;;;;;2.33;1.05;;;11.20;71.70;;;;;;5037783;28;20056;-67
2023/05/26 04:35:33;;;;;;;5.28;1.63;;;11.20;71.60;;;;;;5040925;28;20033;-66
2023/05/26 04:37:59;;;;;;;5.40;1.50;;;11.30;71.60;;;;;;5028753;28;20401;-63
2023/05/26 04:40:25;;;;;;;4.97;2.08;;;11.30;71.50;;;;;;5037599;28;20033;-63
2023/05/26 04:42:51;;;;;;;3.78;1.55;;;11.30;71.50;;;;;;5039150;28;20063;-66
2023/05/26 04:45:17;;;;;;;6.95;1.05;;;11.30;71.50;;;;;;5045548;28;20037;-63
2023/05/26 04:47:43;;;;;;;7.90;2.28;;;11.40;71.50;;;;;;5030365;28;20454;-63
2023/05/26 04:50:12;;;;;;;8.95;1.70;;;11.40;72.10;;;;;;5032511;28;20033;-67
2023/05/26 04:52:41;;;;;;;4.38;1.67;;;11.40;71.40;;;;;;5032435;28;20076;-63
2023/05/26 04:55:08;;;;;;;5.90;1.83;;;11.40;71.40;;;;;;5038910;28;20025;-67
2023/05/26 04:57:34;;;;;;;2.67;1.35;;;11.50;71.50;;;;;;5038510;28;20104;-67
2023/05/26 05:00:00;;;;;;;4.68;1.75;;;11.50;71.50;;;;;;5036319;28;20025;-67
2023/05/26 05:02:26;;;;;;;3.05;1.10;;;11.60;71.60;;;;;;5033277;28;20037;-67
2023/05/26 05:04:52;;;;;;;3.33;1.30;;;11.60;71.40;;;;;;5037630;28;20466;-68
2023/05/26 05:07:18;;;;;;;3.25;1.58;;;11.60;71.40;;;;;;5030004;28;20033;-68
2023/05/26 05:09:44;;;;;;;5.28;1.10;;;11.70;71.30;;;;;;5033234;28;20369;-68
2023/05/26 05:12:10;;;;;;;7.90;1.75;;;11.70;71.10;;;;;;5034996;28;20063;-68
2023/05/26 05:14:36;;;;;;;3.97;1.27;;;11.80;71.10;;;;;;5038314;28;20025;-68
2023/05/26 05:17:02;;;;;;;5.25;1.98;;;11.80;71.10;;;;;;5033148;28;20026;-64
2023/05/26 05:19:28;;;;;;;4.78;2.08;;;11.80;71.10;;;;;;5038507;28;20070;-68
2023/05/26 05:21:54;;;;;;;5.15;1.58;;;11.80;71.20;;;;;;5027997;28;20049;-64
2023/05/26 05:24:20;;;;;;;3.53;1.50;;;11.80;71.00;;;;;;5028509;28;20064;-64
2023/05/26 05:26:46;;;;;;;8.18;2.20;;;11.90;70.90;;;;;;5034189;28;20041;-65
2023/05/26 05:29:14;;;;;;;5.70;1.60;;;12.00;70.80;;;;;;5031338;28;20100;-68
2023/05/26 05:31:40;;;;;;;2.80;0.85;;;12.00;70.60;;;;;;5035781;28;20089;-68
2023/05/26 05:34:06;;;;;;;6.47;1.70;;;12.10;70.60;;;;;;5031139;28;20029;-68
2023/05/26 05:36:33;;;;;;;5.70;1.65;;;12.10;70.50;;;;;;5034804;28;20048;-68
2023/05/26 05:38:58;;;;;;;6.63;1.95;;;12.10;70.50;;;;;;5034565;28;20123;-68
2023/05/26 05:41:24;;;;;;;2.60;1.38;;;12.10;70.60;;;;;;5034254;28;20112;-68
2023/05/26 05:43:50;;;;;;;2.60;1.02;;;12.20;70.40;;;;;;5037997;28;20021;-68
2023/05/26 05:46:16;;;;;;;4.03;1.67;;;12.20;70.30;;;;;;5035969;28;20029;-68
2023/05/26 05:48:42;;;;;;;6.18;1.45;;;12.20;70.30;;;;;;5023249;28;20087;-68
2023/05/26 05:51:08;;;;;;;2.53;1.20;;;12.30;70.30;;;;;;5029164;28;20112;-68
2023/05/26 05:53:34;;;;;;;1.80;0.88;;;12.30;70.30;;;;;;5036164;28;20029;-68
2023/05/26 05:56:00;;;;;;;7.32;1.45;;;12.40;70.30;;;;;;5028071;28;20152;-64
2023/05/26 05:58:25;;;;;;;3.17;1.48;;;12.50;70.30;;;;;;5028994;28;20056;-68
2023/05/26 06:00:51;;;;;;;5.28;2.55;;;12.50;70.10;;;;;;5028626;28;20072;-64
2023/05/26 06:03:17;;;;;;;3.85;1.05;;;12.70;70.00;;;;;;5021402;28;20477;-65
2023/05/26 06:05:42;;;;;;;1.85;1.15;;;12.80;69.80;;;;;;5030725;28;20043;-68
2023/05/26 06:08:08;;;;;;;2.72;1.48;;;12.90;69.60;;;;;;5029018;28;20065;-68
2023/05/26 06:10:34;;;;;;;1.67;1.17;;;12.90;69.40;;;;;;5031501;28;20446;-69
2023/05/26 06:13:00;;;;;;;5.25;1.73;;;13.00;69.30;;;;;;5012045;28;20135;-69
2023/05/26 06:15:25;;;;;;;3.33;1.48;;;13.00;69.20;;;;;;5029045;28;20056;-69
2023/05/26 06:17:51;;;;;;;11.73;1.90;;;13.00;69.20;;;;;;5029753;28;20029;-68
2023/05/26 06:20:19;;;;;;;4.97;1.38;;;13.10;69.20;;;;;;5030483;28;20029;-69
2023/05/26 06:22:45;;;;;;;2.60;1.83;;;13.10;68.90;;;;;;5025012;28;20068;-65
2023/05/26 06:25:11;;;;;;;4.97;2.08;;;13.20;68.70;;;;;;5020156;28;20038;-68
2023/05/26 06:27:37;;;;;;;3.97;1.38;;;13.20;68.50;;;;;;5029832;28;20090;-68
2023/05/26 06:30:03;;;;;;;5.70;1.33;;;13.20;68.30;;;;;;5027962;28;20041;-68
2023/05/26 06:32:28;;;;;;;4.38;1.48;;;13.20;68.10;;;;;;5016696;28;20014;-65
2023/05/26 06:34:54;;;;;;;3.78;1.38;;;13.20;68.00;;;;;;5017102;28;20041;-65
2023/05/26 06:37:20;;;;;;;3.33;1.65;;;13.20;67.90;;;;;;5020464;28;20029;-65
2023/05/26 06:39:45;;;;;;;3.58;1.35;;;13.30;67.80;;;;;;5029439;28;20065;-68
2023/05/26 06:42:11;;;;;;;5.78;1.92;;;13.40;67.50;;;;;;5030639;28;20030;-68
2023/05/26 06:44:37;;;;;;;2.28;1.33;;;13.40;67.20;;;;;;5028053;28;20037;-68
2023/05/26 06:47:02;;;;;;;4.18;1.63;;;13.50;67.00;;;;;;5028643;28;20037;-68
2023/05/26 06:49:28;;;;;;;2.00;1.58;;;13.60;67.10;;;;;;5026832;28;20029;-65
2023/05/26 06:51:54;;;;;;;4.38;2.10;;;13.70;67.00;;;;;;5029525;28;20079;-69
2023/05/26 06:54:20;;;;;;;1.70;1.30;;;13.80;66.50;;;;;;5034967;28;20040;-68
2023/05/26 06:56:45;;;;;;;4.38;2.80;;;13.90;66.10;;;;;;5016930;28;20136;-68
2023/05/26 06:59:11;;;;;;;2.95;1.70;;;13.90;65.80;;;;;;5027380;28;20040;-65
2023/05/26 07:01:37;;;;;;;6.40;1.50;;;13.90;65.80;;;;;;5029071;28;20143;-66
2023/05/26 07:04:02;;;;;;;2.17;1.08;;;14.00;65.80;;;;;;5008402;28;20124;-69
2023/05/26 07:06:28;;;;;;;3.13;2.05;;;14.10;65.60;;;;;;5026298;28;20044;-65
2023/05/26 07:08:53;;;;;;;9.00;1.65;;;14.20;65.40;;;;;;5027591;28;20087;-66
2023/05/26 07:11:19;;;;;;;3.58;1.23;;;14.30;65.20;;;;;;5030081;28;20034;-68
2023/05/26 07:13:46;;;;;;;6.10;1.88;;;14.30;64.80;;;;;;5028876;28;20018;-64
2023/05/26 07:16:11;;;;;;;4.88;1.45;;;14.30;64.80;;;;;;5027485;28;20361;-65
2023/05/26 07:18:37;;;;;;;3.33;1.65;;;14.30;64.80;;;;;;5027358;28;20028;-65
2023/05/26 07:21:03;;;;;;;4.35;1.25;;;14.30;64.90;;;;;;5022891;28;20057;-65
2023/05/26 07:23:28;;;;;;;2.85;1.30;;;14.40;64.70;;;;;;5026920;28;20041;-65
2023/05/26 07:25:54;;;;;;;3.40;1.55;;;14.40;64.50;;;;;;5028831;28;20026;-68
2023/05/26 07:28:20;;;;;;;4.22;1.77;;;14.40;64.40;;;;;;5028957;28;20030;-67
2023/05/26 07:30:45;;;;;;;2.33;0.75;;;14.60;64.50;;;;;;5029196;28;20037;-68
2023/05/26 07:33:11;;;;;;;4.07;1.65;;;14.80;64.30;;;;;;5027324;28;20029;-66
2023/05/26 07:35:37;;;;;;;5.53;1.75;;;15.00;63.80;;;;;;5007555;28;20639;-64
2023/05/26 07:38:03;;;;;;;8.00;1.40;;;15.10;63.50;;;;;;5026085;28;20560;-64
2023/05/26 07:40:34;;;;;;;5.68;2.33;;;15.20;63.00;;;;;;5023957;28;20515;-65
2023/05/26 07:43:00;;;;;;;6.72;1.98;;;15.10;62.70;;;;;;5022409;28;20034;-64
2023/05/26 07:45:25;;;;;;;2.17;1.50;;;15.00;63.10;;;;;;5007903;28;20488;-65
2023/05/26 07:47:51;;;;;;;2.22;1.20;;;14.90;63.30;;;;;;5037433;28;20082;-67
2023/05/26 07:50:17;;;;;;;4.30;1.48;;;14.80;63.50;;;;;;5032035;28;20374;-64
2023/05/26 07:52:42;;;;;;;4.00;1.50;;;14.80;63.70;;;;;;5030494;28;20037;-71
2023/05/26 07:55:08;;;;;;;6.15;2.15;;;14.80;64.20;;;;;;5029583;28;20029;-63
2023/05/26 07:57:34;;;;;;;2.53;1.23;;;14.80;63.30;;;;;;5029805;28;20041;-63
2023/05/26 08:00:00;;;;;;;6.32;1.67;;;14.90;63.40;;;;;;5033503;28;20018;-65
2023/05/26 08:02:26;;;;;;;3.90;1.10;;;15.10;63.20;;;;;;5031536;28;20072;-66
2023/05/26 08:04:52;;;;;;;7.72;1.65;;;15.20;62.90;;;;;;5030698;28;20083;-64
2023/05/26 08:07:17;;;;;;;2.80;1.48;;;15.40;62.60;;;;;;5038502;28;20037;-65
2023/05/26 08:09:43;;;;;;;2.97;1.20;;;15.50;62.20;;;;;;5030668;28;20171;-65
2023/05/26 08:12:09;;;;;;;3.53;1.45;;;15.60;61.90;;;;;;5027344;28;20038;-66
2023/05/26 08:14:35;;;;;;;5.65;1.42;;;15.70;61.50;;;;;;5051880;28;20022;-66
2023/05/26 08:17:00;;;;;;;4.28;1.20;;;15.80;61.40;;;;;;5041412;28;20476;-66
2023/05/26 08:19:26;;;;;;;1.98;1.00;;;15.80;61.30;;;;;;5035618;28;20026;-66
2023/05/26 08:21:52;;;;;;;3.42;1.38;;;16.00;61.10;;;;;;5036688;28;20048;-66
2023/05/26 08:24:18;;;;;;;2.78;1.00;;;16.10;60.90;;;;;;5022947;28;20036;-66
2023/05/26 08:26:44;;;;;;;2.20;1.38;;;16.20;60.60;;;;;;5030445;28;20457;-66
2023/05/26 08:29:10;;;;;;;6.45;1.65;;;16.20;60.20;;;;;;5014572;28;20034;-65
2023/05/26 08:31:36;;;;;;;4.60;1.52;;;16.20;59.80;;;;;;5002362;28;20047;-65
2023/05/26 08:34:02;;;;;;;3.70;1.38;;;16.20;59.80;;;;;;5028423;28;20396;-65
2023/05/26 08:36:27;;;;;;;4.60;1.35;;;16.40;59.70;;;;;;5029316;28;20104;-65
2023/05/26 08:38:53;;;;;;;3.03;1.42;;;16.40;59.30;;;;;;5034913;28;20029;-65
2023/05/26 08:41:21;;;;;;;5.22;1.33;;;16.40;59.20;;;;;;5038972;28;20405;-64
2023/05/26 08:43:59;;;;;;;2.53;1.20;;;16.50;59.10;;;;;;5028155;28;20033;-66
2023/05/26 08:46:26;;;;;;;1.38;0.80;;;16.60;58.90;;;;;;5030079;28;20025;-64
2023/05/26 08:48:53;;;;;;;4.32;0.77;;;16.60;58.70;;;;;;5021282;28;20595;-64
2023/05/26 08:51:19;;;;;;;9.02;1.50;;;16.70;58.60;;;;;;5036186;28;20025;-65
2023/05/26 08:53:47;;;;;;;2.28;1.10;;;16.80;58.20;;;;;;5031539;28;20021;-66
2023/05/26 08:56:13;;;;;;;1.58;1.13;;;16.90;58.20;;;;;;5035806;28;20116;-68
2023/05/26 08:58:39;;;;;;;3.13;1.45;;;17.00;57.90;;;;;;5038401;28;20157;-68
2023/05/26 09:01:05;;;;;;;1.85;1.00;;;17.10;57.60;;;;;;5044176;28;20049;-68
2023/05/26 09:03:31;;;;;;;1.38;0.80;;;17.20;57.40;;;;;;5033726;28;20088;-68
2023/05/26 09:05:57;;;;;;;5.95;1.40;;;17.30;56.90;;;;;;5040107;28;20054;-65
2023/05/26 09:08:23;;;;;;;1.50;1.02;;;17.30;56.50;;;;;;5026594;28;20140;-65
2023/05/26 09:10:48;;;;;;;10.05;1.63;;;17.40;56.40;;;;;;5030939;28;20025;-68
2023/05/26 09:13:18;;;;;;;1.48;1.05;;;17.40;55.70;;;;;;5038730;28;20029;-68
2023/05/26 09:15:49;;;;;;;9.35;1.55;;;17.50;56.00;;;;;;5032333;28;20022;-70
2023/05/26 09:18:14;;;;;;;5.57;1.10;;;17.60;55.80;;;;;;5032648;28;20037;-68
2023/05/26 09:20:42;;;;;;;1.50;0.73;;;17.60;55.30;;;;;;5028545;28;20045;-66
2023/05/26 09:23:08;;;;;;;2.30;0.88;;;17.70;55.30;;;;;;5036661;28;20038;-68
2023/05/26 09:25:36;;;;;;;1.02;0.95;;;17.80;55.30;;;;;;5032112;28;20412;-68
2023/05/26 09:28:03;;;;;;;6.22;1.40;;;17.90;55.40;;;;;;5032266;28;20033;-68
2023/05/26 09:30:39;;;;;;;2.65;0.70;;;18.00;55.40;;;;;;5029520;28;20392;-65
2023/05/26 09:33:10;;;;;;;4.30;0.90;;;18.20;55.30;;;;;;5056160;28;20017;-65
2023/05/26 09:35:41;;;;;;;6.00;1.90;;;18.30;54.70;;;;;;5028123;28;20065;-65
2023/05/26 09:38:12;;;;;;;1.90;0.70;;;18.40;53.90;;;;;;5027878;28;20103;-65
2023/05/26 09:40:46;;;;;;;6.38;1.08;;;18.40;54.10;;;;;;5026794;28;20445;-65
2023/05/26 09:43:12;;;;;;;3.33;0.90;;;18.50;53.50;;;;;;5023649;28;20037;-66
2023/05/26 09:45:39;;;;;;;7.38;1.60;;;18.50;53.40;;;;;;5028058;28;20491;-65
2023/05/26 09:48:06;;;;;;;3.03;1.05;;;18.60;53.00;;;;;;5029589;28;20037;-66
2023/05/26 09:50:34;;;;;;;1.58;0.95;;;18.70;53.20;;;;;;5020265;28;20639;-68
2023/05/26 09:53:02;;;;;;;1.85;0.73;;;18.80;53.10;;;;;;5015145;28;20026;-68
2023/05/26 09:55:28;;;;;;;3.22;0.75;;;18.90;53.00;;;;;;5029132;28;20039;-68
2023/05/26 09:57:57;;;;;;;4.28;1.65;;;19.00;52.70;;;;;;5032775;28;20035;-68
2023/05/26 10:00:25;;;;;;;2.80;1.17;;;19.00;52.30;;;;;;5027947;28;20033;-68
2023/05/26 10:02:51;;;;;;;5.80;1.75;;;19.10;52.20;;;;;;5030707;28;20385;-65
2023/05/26 10:05:17;;;;;;;1.48;1.10;;;19.20;52.10;;;;;;5028587;28;20029;-68
2023/05/26 10:07:43;;;;;;;1.63;1.08;;;19.30;52.00;;;;;;5030407;28;20079;-68
2023/05/26 10:10:13;;;;;;;1.52;1.15;;;19.40;51.20;;;;;;5025818;28;20435;-68
2023/05/26 10:12:41;;;;;;;1.65;1.30;;;19.50;51.30;;;;;;5030298;28;20029;-66
2023/05/26 10:15:07;;;;;;;9.88;1.17;;;19.50;51.20;;;;;;5028516;28;20021;-65
2023/05/26 10:17:34;;;;;;;1.15;1.05;;;19.60;51.40;;;;;;5031224;28;20033;-68
2023/05/26 10:20:01;;;;;;;7.97;1.67;;;19.60;51.30;;;;;;5034821;28;20445;-68
2023/05/26 10:22:34;;;;;;;4.13;1.25;;;19.70;51.00;;;;;;5030909;28;20045;-65
2023/05/26 10:25:28;;;;;;;2.03;1.15;;;19.80;50.90;;;;;;5031232;28;20032;-68
2023/05/26 10:27:58;;;;;;;8.88;1.83;;;20.00;50.70;;;;;;5037541;28;20732;-68
2023/05/26 10:30:26;;;;;;;5.55;1.42;;;20.10;50.60;;;;;;5029345;28;20022;-68
2023/05/26 10:32:54;;;;;;;3.40;1.05;;;20.20;50.30;;;;;;5031558;28;20407;-68
2023/05/26 10:35:25;;;;;;;2.30;1.20;;;20.30;50.20;;;;;;5030792;28;20022;-66
2023/05/26 10:37:56;;;;;;;6.47;1.40;;;20.40;50.20;;;;;;5031580;28;20400;-66
2023/05/26 10:40:34;;;;;;;2.88;1.45;;;20.50;50.30;;;;;;5027394;28;20108;-65
2023/05/26 10:43:02;;;;;;;3.63;1.73;;;20.70;50.00;;;;;;5022145;28;20030;-69
2023/05/26 10:45:32;;;;;;;2.95;1.55;;;20.80;49.00;;;;;;5030149;28;20033;-67
2023/05/26 10:48:09;;;;;;;2.58;0.85;;;20.80;47.80;;;;;;5027150;28;20519;-66
2023/05/26 10:50:58;;;;;;;1.55;0.80;;;20.70;48.80;;;;;;5024650;28;20393;-66
2023/05/26 10:53:44;;;;;;;0.85;0.70;;;20.80;48.10;;;;;;5020904;28;20022;-67
2023/05/26 10:56:13;;;;;;;4.15;1.00;;;21.10;48.30;;;;;;5026996;28;20053;-66
2023/05/26 10:58:49;;;;;;;4.88;1.05;;;21.20;46.90;;;;;;5028109;28;20044;-65
2023/05/26 11:01:18;;;;;;;2.13;1.38;;;21.20;47.10;;;;;;5028244;28;20075;-69
2023/05/26 11:03:48;;;;;;;1.67;1.00;;;21.30;46.50;;;;;;5018828;28;20034;-69
2023/05/26 11:06:16;;;;;;;2.17;0.70;;;21.40;46.60;;;;;;5021397;28;20108;-69
2023/05/26 11:08:50;;;;;;;5.97;1.45;;;21.50;46.10;;;;;;5020536;28;20484;-69
2023/05/26 11:11:32;;;;;;;11.52;1.08;;;21.50;45.70;;;;;;5025960;28;20477;-66
2023/05/26 11:14:10;;;;;;;2.15;0.60;;;21.70;45.60;;;;;;5022631;28;20049;-69
2023/05/26 11:16:38;;;;;;;3.65;1.73;;;21.90;45.70;;;;;;5025378;28;20372;-69
2023/05/26 11:19:05;;;;;;;4.35;1.35;;;22.00;44.70;;;;;;5056847;28;20393;-69
2023/05/26 11:21:33;;;;;;;3.15;0.70;;;22.00;44.60;;;;;;5032183;28;20392;-67
2023/05/26 11:24:00;;;;;;;3.33;1.15;;;22.20;44.40;;;;;;5031466;28;20038;-66
2023/05/26 11:26:28;;;;;;;1.88;0.93;;;22.20;43.80;;;;;;5031674;28;20753;-69
2023/05/26 11:28:54;;;;;;;1.95;1.05;;;22.30;44.00;;;;;;5029309;28;20439;-69
2023/05/26 11:31:22;;;;;;;3.40;0.90;;;22.30;43.80;;;;;;5030694;28;20105;-69
2023/05/26 11:33:48;;;;;;;2.88;1.05;;;22.40;43.90;;;;;;5026979;28;20033;-69
2023/05/26 11:36:19;;;;;;;3.08;1.00;;;22.40;43.10;;;;;;5030617;28;20380;-67
2023/05/26 11:38:47;;;;;;;0.90;0.80;;;22.50;43.70;;;;;;5028351;28;20029;-67
2023/05/26 11:41:15;;;;;;;3.42;1.10;;;22.70;44.10;;;;;;5028722;28;20031;-67
2023/05/26 11:43:43;;;;;;;2.75;1.02;;;22.70;41.60;;;;;;5028902;28;20037;-70
2023/05/26 11:46:11;;;;;;;1.10;0.63;;;22.70;42.40;;;;;;5031688;28;20390;-70
2023/05/26 11:48:41;;;;;;;1.27;0.60;;;22.80;42.70;;;;;;5026906;28;20037;-69
2023/05/26 11:51:11;;;;;;;2.05;0.82;;;22.80;42.60;;;;;;5022911;28;20033;-69
2023/05/26 11:53:38;;;;;;;1.83;0.82;;;23.00;42.90;;;;;;5023260;28;20037;-69
2023/05/26 11:56:09;;;;;;;3.42;0.73;;;23.10;43.10;;;;;;5028864;28;20026;-69
2023/05/26 11:58:38;;;;;;;1.15;0.65;;;23.20;43.10;;;;;;5022790;28;20017;-69
2023/05/26 12:01:05;;;;;;;1.33;0.90;;;23.30;43.00;;;;;;5027213;28;20491;-69
2023/05/26 12:03:37;;;;;;;0.50;0.47;;;23.40;42.70;;;;;;5025583;28;20024;-69
2023/05/26 12:06:14;;;;;;;3.42;1.00;;;23.40;42.70;;;;;;5024466;28;20032;-69
2023/05/26 12:08:54;;;;;;;4.78;0.85;;;23.50;42.30;;;;;;5024147;28;20037;-69
2023/05/26 12:11:23;;;;;;;1.90;1.00;;;23.50;42.50;;;;;;5025062;28;20091;-69
2023/05/26 12:13:59;;;;;;;1.63;0.68;;;23.50;42.30;;;;;;5025895;28;20026;-66
2023/05/26 12:16:38;;;;;;;3.75;1.13;;;23.60;42.50;;;;;;5025911;28;20117;-67
2023/05/26 12:19:13;;;;;;;1.42;1.05;;;23.70;42.70;;;;;;5024930;28;20383;-67
2023/05/26 12:21:47;;;;;;;1.90;1.20;;;23.80;42.60;;;;;;5027711;28;21429;-66
2023/05/26 12:24:13;;;;;;;1.55;0.95;;;23.80;41.70;;;;;;5030063;28;20025;-67
2023/05/26 12:26:40;;;;;;;2.95;1.45;;;23.90;41.90;;;;;;5022803;28;20041;-66
2023/05/26 12:29:17;;;;;;;3.42;1.15;;;23.80;41.10;;;;;;5025700;28;20033;-73
2023/05/26 12:31:48;;;;;;;2.03;0.77;;;23.80;42.40;;;;;;5019410;28;20429;-68
2023/05/26 12:34:21;;;;;;;1.27;0.82;;;23.90;41.90;;;;;;5028985;28;20434;-69
2023/05/26 12:36:48;;;;;;;4.35;1.10;;;24.10;42.00;;;;;;5031048;28;20033;-67
2023/05/26 12:39:14;;;;;;;0.80;0.77;;;24.20;41.80;;;;;;5029040;28;20380;-66
2023/05/26 12:41:41;;;;;;;1.48;1.00;;;24.30;41.10;;;;;;5029446;28;20033;-66
2023/05/26 12:44:10;;;;;;;2.75;1.05;;;24.30;41.10;;;;;;5029922;28;20025;-65
2023/05/26 12:46:37;;;;;;;4.38;0.77;;;24.40;39.90;;;;;;5028418;28;20032;-65